Time,TemperatureF,DewpointF,PressureIn,WindDirection,WindDirectionDegrees,WindSpeedMPH,WindSpeedGustMPH,Humidity,HourlyPrecipIn,Conditions,Clouds,dailyrainin,SoftwareType,DateUTC
2013-03-04 00:02:00,63.0,59.4,29.41,NE,45,0.0,0.0,88,0.00,,,0.00,meteohub,2013-03-04 10:02:00,
2013-03-04 00:07:00,62.8,59.2,29.40,East,90,0.0,0.0,88,0.00,,,0.00,meteohub,2013-03-04 10:07:00,
2013-03-04 00:12:00,62.6,59.0,29.40,NE,45,0.0,0.0,88,0.00,,,0.00,meteohub,2013-03-04 10:12:00,
2013-03-04 00:17:00,62.6,59.0,29.40,NE,45,0.0,0.0,88,0.00,,,0.00,meteohub,2013-03-04 10:17:00,
2013-03-04 00:22:00,62.4,58.8,29.40,NE,45,0.0,0.0,88,0.00,,,0.00,meteohub,2013-03-04 10:22:00,
2013-03-04 00:27:00,62.2,59.0,29.40,NE,45,0.0,0.0,89,0.00,,,0.00,meteohub,2013-03-04 10:27:00,
2013-03-04 00:32:00,62.1,58.8,29.40,East,90,0.0,0.0,89,0.00,,,0.00,meteohub,2013-03-04 10:32:00,
2013-03-04 00:37:00,62.2,59.0,29.40,NE,45,0.0,0.0,89,0.00,,,0.00,meteohub,2013-03-04 10:37:00,
2013-03-04 00:42:00,62.2,59.2,29.40,East,90,0.0,0.0,90,0.00,,,0.00,meteohub,2013-03-04 10:42:00,
2013-03-04 00:47:00,62.1,58.8,29.40,NE,45,0.0,1.0,89,0.00,,,0.00,meteohub,2013-03-04 10:47:00,
2013-03-04 00:52:00,62.1,58.5,29.40,East,90,0.0,1.0,88,0.00,,,0.00,meteohub,2013-03-04 10:52:00,
2013-03-04 00:57:00,61.9,57.9,29.39,NE,45,0.0,1.0,87,0.00,,,0.00,meteohub,2013-03-04 10:57:00,
2013-03-04 01:02:00,61.9,57.6,29.39,NE,45,0.0,0.0,86,0.00,,,0.00,meteohub,2013-03-04 11:02:00,
2013-03-04 01:07:00,61.9,57.6,29.39,NE,45,0.0,0.0,86,0.00,,,0.00,meteohub,2013-03-04 11:07:00,
2013-03-04 01:12:00,61.7,57.4,29.39,NE,45,0.0,0.0,86,0.00,,,0.00,meteohub,2013-03-04 11:12:00,
2013-03-04 01:17:00,61.7,57.4,29.39,NE,45,0.0,0.0,86,0.00,,,0.00,meteohub,2013-03-04 11:17:00,
2013-03-04 01:22:00,61.7,57.4,29.39,NE,45,0.0,0.0,86,0.00,,,0.00,meteohub,2013-03-04 11:22:00,
2013-03-04 01:27:00,61.5,57.4,29.39,NE,45,0.0,0.0,86,0.00,,,0.00,meteohub,2013-03-04 11:27:00,
2013-03-04 01:32:00,61.5,57.6,29.39,East,90,0.0,0.0,87,0.00,,,0.00,meteohub,2013-03-04 11:32:00,
2013-03-04 01:37:00,61.3,57.4,29.39,East,90,0.0,0.0,87,0.00,,,0.00,meteohub,2013-03-04 11:37:00,
2013-03-04 01:42:00,61.3,57.4,29.39,NE,45,0.0,0.0,87,0.00,,,0.00,meteohub,2013-03-04 11:42:00,
2013-03-04 01:47:00,61.0,57.0,29.39,NE,45,0.0,0.0,87,0.00,,,0.00,meteohub,2013-03-04 11:47:00,
2013-03-04 01:52:00,61.0,57.0,29.39,NE,45,0.0,0.0,87,0.00,,,0.00,meteohub,2013-03-04 11:52:00,
2013-03-04 01:57:00,60.6,56.7,29.38,NE,45,0.0,0.0,87,0.00,,,0.00,meteohub,2013-03-04 11:57:00,
2013-03-04 02:02:00,60.6,56.7,29.38,NE,45,0.0,0.0,87,0.00,,,0.00,meteohub,2013-03-04 12:02:00,
2013-03-04 02:07:00,60.4,56.5,29.38,NE,45,0.0,0.0,87,0.00,,,0.00,meteohub,2013-03-04 12:07:00,
2013-03-04 02:12:00,60.4,56.5,29.38,NE,45,0.0,0.0,87,0.00,,,0.00,meteohub,2013-03-04 12:12:00,
2013-03-04 02:17:00,60.1,56.5,29.38,North,-999,-999.0,0.0,88,0.00,,,0.00,meteohub,2013-03-04 12:17:00,
2013-03-04 02:22:00,60.1,56.5,29.38,North,-999,-999.0,0.0,88,15.30,,,15.30,meteohub,2013-03-04 12:22:00,
2013-03-04 09:10:00,76.5,63.9,29.43,SE,135,0.0,-999.0,65,-99.99,,,15.30,meteohub,2013-03-04 19:10:00,
2013-03-04 09:11:00,76.6,64.0,29.42,SE,135,0.0,-999.0,65,0.00,,,15.30,meteohub,2013-03-04 19:11:00,
2013-03-04 09:16:00,77.0,64.8,29.42,East,90,0.0,0.0,66,0.00,,,15.30,meteohub,2013-03-04 19:16:00,
2013-03-04 09:21:00,76.8,63.7,29.43,SE,135,0.0,1.0,64,0.00,,,15.30,meteohub,2013-03-04 19:21:00,
2013-03-04 09:26:00,77.0,64.4,29.42,NW,315,0.0,1.0,65,0.00,,,15.30,meteohub,2013-03-04 19:26:00,
2013-03-04 09:31:00,77.7,64.9,29.42,SE,135,0.0,1.0,65,0.00,,,15.30,meteohub,2013-03-04 19:31:00,
2013-03-04 09:36:00,78.3,65.1,29.42,SE,135,0.0,0.0,64,0.00,,,15.30,meteohub,2013-03-04 19:36:00,
2013-03-04 09:41:00,78.4,65.3,29.42,South,180,1.0,0.0,64,0.00,,,15.30,meteohub,2013-03-04 19:41:00,
2013-03-04 09:46:00,78.8,65.7,29.42,SE,135,0.0,1.0,64,0.00,,,15.30,meteohub,2013-03-04 19:46:00,
2013-03-04 09:51:00,79.2,65.8,29.42,SE,135,0.0,1.0,64,0.00,,,15.30,meteohub,2013-03-04 19:51:00,
2013-03-04 09:56:00,80.1,65.8,29.42,SE,135,1.0,1.0,62,0.00,,,15.30,meteohub,2013-03-04 19:56:00,
2013-03-04 10:01:00,79.9,64.8,29.42,North,0,0.0,1.0,60,0.00,,,15.30,meteohub,2013-03-04 20:01:00,
2013-03-04 10:06:00,79.0,63.9,29.42,West,270,1.0,1.0,60,0.00,,,15.30,meteohub,2013-03-04 20:06:00,
2013-03-04 10:11:00,76.3,63.1,29.42,East,90,0.0,1.0,64,0.00,,,15.30,meteohub,2013-03-04 20:11:00,
2013-03-04 10:16:00,75.0,62.4,29.42,East,90,0.0,1.0,65,0.00,,,15.30,meteohub,2013-03-04 20:16:00,
2013-03-04 10:21:00,74.7,63.9,29.42,East,90,0.0,1.0,69,0.00,,,15.30,meteohub,2013-03-04 20:21:00,
2013-03-04 10:26:00,76.8,66.2,29.41,West,270,0.0,0.0,70,0.00,,,15.30,meteohub,2013-03-04 20:26:00,
2013-03-04 10:31:00,77.2,64.9,29.42,West,270,0.0,0.0,66,0.00,,,15.30,meteohub,2013-03-04 20:31:00,
2013-03-04 10:36:00,77.4,64.8,29.41,SE,135,0.0,1.0,65,0.00,,,15.30,meteohub,2013-03-04 20:36:00,
2013-03-04 10:41:00,76.8,62.8,29.41,SE,135,0.0,2.0,62,0.00,,,15.30,meteohub,2013-03-04 20:41:00,
2013-03-04 10:46:00,77.7,64.0,29.40,South,180,0.0,2.0,63,0.00,,,15.30,meteohub,2013-03-04 20:46:00,
2013-03-04 10:51:00,79.3,65.1,29.40,East,90,0.0,0.0,62,0.00,,,15.30,meteohub,2013-03-04 20:51:00,
2013-03-04 10:56:00,79.5,64.4,29.41,SE,135,0.0,1.0,60,0.00,,,15.30,meteohub,2013-03-04 20:56:00,
2013-03-04 11:01:00,79.5,64.9,29.40,SE,135,0.0,2.0,61,0.00,,,15.30,meteohub,2013-03-04 21:01:00,
2013-03-04 11:06:00,80.1,65.5,29.39,NW,315,0.0,2.0,61,0.00,,,15.30,meteohub,2013-03-04 21:06:00,
2013-03-04 11:11:00,79.3,63.7,29.39,South,180,1.0,2.0,59,0.00,,,15.30,meteohub,2013-03-04 21:11:00,
2013-03-04 11:16:00,78.6,64.0,29.39,WSW,248,0.0,1.0,61,0.00,,,15.30,meteohub,2013-03-04 21:16:00,
2013-03-04 11:21:00,79.0,64.8,29.39,North,0,1.0,1.0,62,0.00,,,15.30,meteohub,2013-03-04 21:21:00,
2013-03-04 11:26:00,79.0,63.9,29.39,West,270,1.0,1.0,60,0.00,,,15.30,meteohub,2013-03-04 21:26:00,
2013-03-04 11:31:00,79.5,65.3,29.39,WSW,248,0.0,2.0,62,0.00,,,15.30,meteohub,2013-03-04 21:31:00,
2013-03-04 11:36:00,79.2,64.9,29.39,NW,315,0.0,2.0,62,0.00,,,15.30,meteohub,2013-03-04 21:36:00,
2013-03-04 11:41:00,79.5,64.9,29.39,West,270,0.0,2.0,61,0.00,,,15.30,meteohub,2013-03-04 21:41:00,
2013-03-04 11:46:00,79.9,66.2,29.38,West,270,0.0,1.0,63,0.00,,,15.30,meteohub,2013-03-04 21:46:00,
2013-03-04 11:51:00,80.1,66.7,29.38,NW,315,0.0,1.0,64,0.00,,,15.30,meteohub,2013-03-04 21:51:00,
2013-03-04 11:56:00,80.6,66.4,29.37,West,270,0.0,1.0,62,0.00,,,15.30,meteohub,2013-03-04 21:56:00,
2013-03-04 12:01:00,80.8,66.6,29.37,NW,315,0.0,1.0,62,0.00,,,15.30,meteohub,2013-03-04 22:01:00,
2013-03-04 12:07:00,81.1,66.4,29.36,WSW,248,0.0,1.0,61,0.00,,,15.30,meteohub,2013-03-04 22:07:00,
2013-03-04 12:11:00,81.0,65.8,29.36,SE,135,1.0,1.0,60,0.00,,,15.30,meteohub,2013-03-04 22:11:00,
2013-03-04 12:17:00,80.8,66.9,29.36,East,90,0.0,2.0,63,0.00,,,15.30,meteohub,2013-03-04 22:17:00,
2013-03-04 12:22:00,81.3,67.5,29.36,South,180,0.0,2.0,63,0.00,,,15.30,meteohub,2013-03-04 22:22:00,
2013-03-04 12:27:00,81.7,67.5,29.36,NE,45,0.0,2.0,62,0.00,,,15.30,meteohub,2013-03-04 22:27:00,
2013-03-04 12:32:00,81.7,67.5,29.35,South,180,1.0,1.0,62,0.00,,,15.30,meteohub,2013-03-04 22:32:00,
2013-03-04 12:37:00,80.4,67.1,29.35,South,180,2.0,2.0,64,0.00,,,15.30,meteohub,2013-03-04 22:37:00,
2013-03-04 12:42:00,79.7,66.4,29.35,WSW,248,1.0,2.0,64,0.00,,,15.30,meteohub,2013-03-04 22:42:00,
2013-03-04 12:47:00,77.7,65.5,29.35,NW,315,1.0,2.0,66,0.00,,,15.30,meteohub,2013-03-04 22:47:00,
2013-03-04 12:52:00,77.4,66.0,29.35,North,0,0.0,2.0,68,0.00,,,15.30,meteohub,2013-03-04 22:52:00,
2013-03-04 12:57:00,77.5,66.9,29.35,West,270,0.0,2.0,70,0.00,,,15.30,meteohub,2013-03-04 22:57:00,
2013-03-04 13:02:00,78.6,66.7,29.34,NW,315,2.0,2.0,67,0.00,,,15.30,meteohub,2013-03-04 23:02:00,
2013-03-04 13:07:00,77.7,65.5,29.34,NW,315,2.0,2.0,66,0.00,,,15.30,meteohub,2013-03-04 23:07:00,
2013-03-04 13:12:00,76.1,65.1,29.34,North,0,2.0,2.0,69,0.00,,,15.30,meteohub,2013-03-04 23:12:00,
2013-03-04 13:17:00,75.9,65.5,29.34,WSW,248,2.0,2.0,70,0.00,,,15.30,meteohub,2013-03-04 23:17:00,
2013-03-04 13:22:00,75.9,66.2,29.34,West,270,0.0,2.0,72,0.00,,,15.30,meteohub,2013-03-04 23:22:00,
2013-03-04 13:27:00,76.8,66.2,29.33,NW,315,1.0,2.0,70,0.00,,,15.30,meteohub,2013-03-04 23:27:00,
2013-03-04 13:32:00,76.8,65.8,29.33,NW,315,2.0,2.0,69,0.00,,,15.30,meteohub,2013-03-04 23:32:00,
2013-03-04 13:37:00,77.9,66.9,29.33,West,270,2.0,2.0,69,0.00,,,15.30,meteohub,2013-03-04 23:37:00,
2013-03-04 13:42:00,78.1,66.2,29.32,WSW,248,0.0,2.0,67,0.00,,,15.30,meteohub,2013-03-04 23:42:00,
2013-03-04 13:47:00,78.4,66.9,29.32,WSW,248,0.0,2.0,68,0.00,,,15.30,meteohub,2013-03-04 23:47:00,
2013-03-04 13:51:00,77.9,66.6,29.32,WSW,248,0.0,4.0,68,0.00,,,15.30,meteohub,2013-03-04 23:51:00,
2013-03-04 13:57:00,78.1,66.7,29.32,WSW,248,0.0,4.0,68,0.00,,,15.30,meteohub,2013-03-04 23:57:00,
2013-03-04 14:02:00,79.5,67.6,29.32,West,270,0.0,4.0,67,0.00,,,15.30,meteohub,2013-03-05 00:02:00,
2013-03-04 14:07:00,79.2,66.4,29.31,West,270,0.0,0.0,65,0.00,,,15.30,meteohub,2013-03-05 00:07:00,
2013-03-04 14:12:00,78.1,65.8,29.31,West,270,0.0,1.0,66,0.00,,,15.30,meteohub,2013-03-05 00:12:00,
2013-03-04 14:17:00,77.4,66.4,29.31,NW,315,0.0,1.0,69,0.00,,,15.30,meteohub,2013-03-05 00:17:00,
2013-03-04 14:22:00,78.1,66.7,29.31,South,180,0.0,0.0,68,0.00,,,15.30,meteohub,2013-03-05 00:22:00,
2013-03-04 14:27:00,78.8,66.6,29.31,WSW,248,0.0,0.0,66,0.00,,,15.30,meteohub,2013-03-05 00:27:00,
2013-03-04 14:32:00,79.2,67.3,29.31,West,270,0.0,0.0,67,0.00,,,15.30,meteohub,2013-03-05 00:32:00,
2013-03-04 14:37:00,79.5,66.7,29.31,West,270,0.0,1.0,65,0.00,,,15.30,meteohub,2013-03-05 00:37:00,
2013-03-04 14:42:00,79.3,66.0,29.31,West,270,0.0,1.0,64,0.00,,,15.30,meteohub,2013-03-05 00:42:00,
2013-03-04 14:47:00,79.0,65.3,29.30,WSW,248,0.0,0.0,63,0.00,,,15.30,meteohub,2013-03-05 00:47:00,
2013-03-04 14:52:00,79.2,66.4,29.30,WSW,248,0.0,0.0,65,0.00,,,15.30,meteohub,2013-03-05 00:52:00,
2013-03-04 14:57:00,79.0,65.3,29.30,West,270,0.0,0.0,63,0.00,,,15.30,meteohub,2013-03-05 00:57:00,
2013-03-04 15:02:00,78.8,65.7,29.30,NW,315,0.0,0.0,64,0.00,,,15.30,meteohub,2013-03-05 01:02:00,
2013-03-04 15:07:00,78.3,65.5,29.30,NW,315,0.0,0.0,65,0.00,,,15.30,meteohub,2013-03-05 01:07:00,
2013-03-04 15:12:00,78.6,66.4,29.30,NW,315,0.0,0.0,66,0.00,,,15.30,meteohub,2013-03-05 01:12:00,
2013-03-04 15:17:00,79.3,66.6,29.29,WSW,248,0.0,0.0,65,0.00,,,15.30,meteohub,2013-03-05 01:17:00,
2013-03-04 15:22:00,78.1,65.3,29.30,West,270,0.0,0.0,65,0.00,,,15.30,meteohub,2013-03-05 01:22:00,
2013-03-04 15:27:00,77.9,65.7,29.30,West,270,0.0,0.0,66,0.00,,,15.30,meteohub,2013-03-05 01:27:00,
2013-03-04 15:32:00,77.5,64.8,29.29,West,270,1.0,2.0,65,0.00,,,15.30,meteohub,2013-03-05 01:32:00,
2013-03-04 15:37:00,77.5,65.3,29.29,NW,315,1.0,2.0,66,0.00,,,15.30,meteohub,2013-03-05 01:37:00,
2013-03-04 15:42:00,77.9,65.7,29.29,NW,315,1.0,2.0,66,0.00,,,15.30,meteohub,2013-03-05 01:42:00,
2013-03-04 15:47:00,77.9,66.0,29.29,WSW,248,1.0,2.0,67,0.00,,,15.30,meteohub,2013-03-05 01:47:00,
2013-03-04 15:52:00,77.9,66.0,29.29,NW,315,2.0,2.0,67,0.00,,,15.30,meteohub,2013-03-05 01:52:00,
2013-03-04 15:57:00,77.9,66.0,29.29,West,270,2.0,2.0,67,0.00,,,15.30,meteohub,2013-03-05 01:57:00,
2013-03-04 16:02:00,77.9,66.6,29.29,West,270,1.0,2.0,68,0.00,,,15.30,meteohub,2013-03-05 02:02:00,
2013-03-04 16:07:00,77.7,66.4,29.29,WSW,248,2.0,2.0,68,0.00,,,15.30,meteohub,2013-03-05 02:07:00,
2013-03-04 16:12:00,77.4,66.0,29.29,NW,315,1.0,2.0,68,0.00,,,15.30,meteohub,2013-03-05 02:12:00,
2013-03-04 16:17:00,77.7,66.4,29.29,West,270,0.0,2.0,68,0.00,,,15.30,meteohub,2013-03-05 02:17:00,
2013-03-04 16:22:00,77.9,66.6,29.29,West,270,1.0,2.0,68,0.00,,,15.30,meteohub,2013-03-05 02:22:00,
2013-03-04 16:27:00,78.3,66.4,29.29,NW,315,1.0,2.0,67,0.00,,,15.30,meteohub,2013-03-05 02:27:00,
2013-03-04 16:32:00,77.5,65.7,29.29,NW,315,0.0,2.0,67,0.00,,,15.30,meteohub,2013-03-05 02:32:00,
2013-03-04 16:37:00,78.3,66.4,29.29,NW,315,0.0,2.0,67,0.00,,,15.30,meteohub,2013-03-05 02:37:00,
2013-03-04 16:42:00,78.1,66.2,29.29,East,90,1.0,2.0,67,0.00,,,15.30,meteohub,2013-03-05 02:42:00,
2013-03-04 16:47:00,78.4,66.2,29.29,West,270,1.0,2.0,66,0.00,,,15.30,meteohub,2013-03-05 02:47:00,
2013-03-04 16:52:00,77.9,66.0,29.29,NW,315,2.0,2.0,67,0.00,,,15.30,meteohub,2013-03-05 02:52:00,
2013-03-04 16:57:00,77.0,66.0,29.29,West,270,0.0,2.0,69,0.00,,,15.30,meteohub,2013-03-05 02:57:00,
2013-03-04 17:02:00,76.8,66.2,29.29,WSW,248,2.0,2.0,70,0.00,,,15.30,meteohub,2013-03-05 03:02:00,
2013-03-04 17:07:00,76.8,65.8,29.29,North,0,0.0,2.0,69,0.00,,,15.30,meteohub,2013-03-05 03:07:00,
2013-03-04 17:12:00,76.3,65.8,29.29,WSW,248,2.0,2.0,70,0.00,,,15.30,meteohub,2013-03-05 03:12:00,
2013-03-04 17:17:00,76.1,66.4,29.29,NW,315,0.0,2.0,72,0.00,,,15.30,meteohub,2013-03-05 03:17:00,
2013-03-04 17:22:00,76.5,66.0,29.29,NW,315,0.0,2.0,70,0.00,,,15.30,meteohub,2013-03-05 03:22:00,
2013-03-04 17:27:00,75.2,65.5,29.30,NW,315,0.0,2.0,72,0.00,,,15.30,meteohub,2013-03-05 03:27:00,
2013-03-04 17:32:00,73.9,65.8,29.30,North,0,2.0,2.0,76,0.00,,,15.30,meteohub,2013-03-05 03:32:00,
2013-03-04 17:37:00,73.6,65.8,29.30,NW,315,2.0,2.0,77,0.00,,,15.30,meteohub,2013-03-05 03:37:00,
2013-03-04 17:42:00,73.9,66.2,29.30,NW,315,0.0,2.0,77,0.00,,,15.30,meteohub,2013-03-05 03:42:00,
2013-03-04 17:47:00,74.1,66.0,29.30,NW,315,0.0,2.0,76,0.00,,,15.30,meteohub,2013-03-05 03:47:00,
2013-03-04 17:52:00,73.8,65.7,29.30,NW,315,0.0,2.0,76,0.00,,,15.30,meteohub,2013-03-05 03:52:00,
2013-03-04 17:57:00,73.0,65.5,29.30,NW,315,0.0,2.0,77,0.00,,,15.30,meteohub,2013-03-05 03:57:00,
2013-03-04 18:02:00,72.3,65.5,29.30,North,0,0.0,2.0,79,0.00,,,15.30,meteohub,2013-03-05 04:02:00,
2013-03-04 18:07:00,71.6,64.8,29.30,WSW,248,0.0,0.0,79,0.00,,,15.30,meteohub,2013-03-05 04:07:00,
2013-03-04 18:13:00,70.9,64.4,29.30,North,0,0.0,0.0,80,0.00,,,15.30,meteohub,2013-03-05 04:13:00,
2013-03-04 18:17:00,70.5,64.4,29.31,NE,45,0.0,0.0,81,0.00,,,15.30,meteohub,2013-03-05 04:17:00,
2013-03-04 18:23:00,70.0,63.9,29.31,NE,45,0.0,0.0,81,0.00,,,15.30,meteohub,2013-03-05 04:23:00,
2013-03-04 18:28:00,69.4,64.0,29.31,East,90,0.0,0.0,83,0.00,,,15.30,meteohub,2013-03-05 04:28:00,
2013-03-04 18:33:00,69.1,64.0,29.32,East,90,0.0,0.0,84,0.00,,,15.30,meteohub,2013-03-05 04:33:00,
2013-03-04 18:38:00,68.5,63.5,29.32,East,90,0.0,0.0,84,0.00,,,15.30,meteohub,2013-03-05 04:38:00,
2013-03-04 18:43:00,68.2,63.5,29.32,SE,135,0.0,0.0,85,0.00,,,15.30,meteohub,2013-03-05 04:43:00,
2013-03-04 18:48:00,67.6,63.3,29.32,North,0,0.0,0.0,86,0.00,,,15.30,meteohub,2013-03-05 04:48:00,
2013-03-04 18:53:00,67.6,63.3,29.32,North,0,0.0,0.0,86,0.00,,,15.30,meteohub,2013-03-05 04:53:00,
2013-03-04 18:58:00,66.9,63.3,29.32,NE,45,0.0,0.0,88,0.00,,,15.30,meteohub,2013-03-05 04:58:00,
2013-03-04 19:00:00,66.6,63.1,29.32,NE,45,0.0,0.0,89,0.00,,,15.30,meteohub,2013-03-05 05:00:00,
2013-03-04 19:05:00,66.0,63.0,29.32,NE,45,0.0,0.0,90,0.00,,,15.30,meteohub,2013-03-05 05:05:00,
2013-03-04 19:10:00,65.7,63.0,29.32,NE,45,0.0,0.0,91,0.00,,,15.30,meteohub,2013-03-05 05:10:00,
2013-03-04 19:15:00,65.3,63.0,29.33,NE,45,0.0,0.0,92,0.00,,,15.30,meteohub,2013-03-05 05:15:00,
2013-03-04 19:20:00,65.1,63.0,29.33,NE,45,0.0,0.0,93,0.00,,,15.30,meteohub,2013-03-05 05:20:00,
2013-03-04 19:25:00,64.8,63.3,29.33,NE,45,0.0,0.0,95,0.00,,,15.30,meteohub,2013-03-05 05:25:00,
2013-03-04 19:30:00,64.6,63.5,29.33,East,90,0.0,0.0,96,0.00,,,15.30,meteohub,2013-03-05 05:30:00,
2013-03-04 19:35:00,64.4,63.3,29.33,NE,45,0.0,0.0,96,0.00,,,15.30,meteohub,2013-03-05 05:35:00,
2013-03-04 19:40:00,64.2,63.3,29.34,NE,45,0.0,0.0,97,0.00,,,15.30,meteohub,2013-03-05 05:40:00,
2013-03-04 19:45:00,64.0,63.5,29.34,NE,45,0.0,0.0,98,0.00,,,15.30,meteohub,2013-03-05 05:45:00,
2013-03-04 19:50:00,63.9,63.3,29.34,NE,45,0.0,0.0,98,0.00,,,15.30,meteohub,2013-03-05 05:50:00,
2013-03-04 19:55:00,63.7,63.3,29.34,NE,45,0.0,0.0,99,0.00,,,15.30,meteohub,2013-03-05 05:55:00,
2013-03-04 20:00:00,63.5,63.1,29.34,NE,45,0.0,0.0,99,0.00,,,15.30,meteohub,2013-03-05 06:00:00,
2013-03-04 20:05:00,63.3,63.0,29.34,NE,45,0.0,0.0,99,0.00,,,15.30,meteohub,2013-03-05 06:05:00,
2013-03-04 20:10:00,63.1,62.8,29.34,NE,45,0.0,0.0,99,0.00,,,15.30,meteohub,2013-03-05 06:10:00,
2013-03-04 20:16:00,63.1,62.8,29.34,NE,45,0.0,0.0,99,0.00,,,15.30,meteohub,2013-03-05 06:16:00,
2013-03-04 20:21:00,63.0,62.6,29.35,NE,45,0.0,0.0,99,0.00,,,15.30,meteohub,2013-03-05 06:21:00,
2013-03-04 20:26:00,62.8,62.4,29.34,NE,45,0.0,0.0,99,0.00,,,15.30,meteohub,2013-03-05 06:26:00,
2013-03-04 20:31:00,62.6,62.2,29.35,NE,45,0.0,0.0,99,0.00,,,15.30,meteohub,2013-03-05 06:31:00,
2013-03-04 20:36:00,62.6,62.2,29.35,NE,45,0.0,0.0,99,0.00,,,15.30,meteohub,2013-03-05 06:36:00,
2013-03-04 20:41:00,62.4,62.1,29.35,NE,45,0.0,0.0,99,0.00,,,15.30,meteohub,2013-03-05 06:41:00,
2013-03-04 20:46:00,62.4,62.1,29.36,NE,45,0.0,0.0,99,0.00,,,15.30,meteohub,2013-03-05 06:46:00,
2013-03-04 20:51:00,62.2,61.9,29.36,NE,45,0.0,0.0,99,0.00,,,15.30,meteohub,2013-03-05 06:51:00,
2013-03-04 20:56:00,62.1,61.7,29.36,NE,45,0.0,0.0,99,0.00,,,15.30,meteohub,2013-03-05 06:56:00,
2013-03-04 21:01:00,62.1,61.7,29.36,NE,45,0.0,0.0,99,0.00,,,15.30,meteohub,2013-03-05 07:01:00,
2013-03-04 21:06:00,62.1,61.7,29.36,NE,45,0.0,0.0,99,0.00,,,15.30,meteohub,2013-03-05 07:06:00,
2013-03-04 21:11:00,62.1,61.7,29.37,NE,45,0.0,0.0,99,0.00,,,15.30,meteohub,2013-03-05 07:11:00,
2013-03-04 21:16:00,62.2,61.9,29.36,NE,45,0.0,0.0,99,0.00,,,15.30,meteohub,2013-03-05 07:16:00,
2013-03-04 21:21:00,62.4,62.1,29.36,East,90,0.0,0.0,99,0.00,,,15.30,meteohub,2013-03-05 07:21:00,
2013-03-04 21:26:00,62.6,62.2,29.37,NE,45,0.0,0.0,99,0.00,,,15.30,meteohub,2013-03-05 07:26:00,
2013-03-04 21:31:00,62.8,62.4,29.37,NE,45,0.0,0.0,99,0.00,,,15.30,meteohub,2013-03-05 07:31:00,
2013-03-04 21:36:00,63.1,62.8,29.37,NE,45,0.0,0.0,99,0.00,,,15.30,meteohub,2013-03-05 07:36:00,
2013-03-04 21:41:00,63.3,63.0,29.37,NE,45,0.0,0.0,99,0.00,,,15.30,meteohub,2013-03-05 07:41:00,
2013-03-04 21:46:00,63.5,63.1,29.38,NE,45,0.0,0.0,99,0.00,,,15.30,meteohub,2013-03-05 07:46:00,
2013-03-04 21:51:00,63.7,63.3,29.38,NE,45,0.0,0.0,99,0.00,,,15.30,meteohub,2013-03-05 07:51:00,
2013-03-04 21:56:00,63.7,63.3,29.38,East,90,0.0,0.0,99,0.00,,,15.30,meteohub,2013-03-05 07:56:00,
2013-03-04 22:01:00,63.5,63.0,29.37,East,90,0.0,0.0,98,0.00,,,15.30,meteohub,2013-03-05 08:01:00,
2013-03-04 22:06:00,63.5,62.6,29.37,NE,45,0.0,0.0,97,0.00,,,15.30,meteohub,2013-03-05 08:06:00,
2013-03-04 22:11:00,63.3,62.4,29.38,East,90,0.0,0.0,97,0.00,,,15.30,meteohub,2013-03-05 08:11:00,
2013-03-04 22:16:00,63.3,62.4,29.37,East,90,0.0,0.0,97,0.00,,,15.30,meteohub,2013-03-05 08:16:00,
2013-03-04 22:21:00,63.3,62.2,29.37,NE,45,0.0,0.0,96,0.00,,,15.30,meteohub,2013-03-05 08:21:00,
2013-03-04 22:26:00,63.5,62.4,29.37,NE,45,0.0,0.0,96,0.00,,,15.30,meteohub,2013-03-05 08:26:00,
2013-03-04 22:31:00,63.7,62.2,29.37,NE,45,0.0,0.0,95,0.00,,,15.30,meteohub,2013-03-05 08:31:00,
2013-03-04 22:36:00,64.0,62.6,29.38,NE,45,0.0,0.0,95,0.00,,,15.30,meteohub,2013-03-05 08:36:00,
2013-03-04 22:41:00,64.2,62.4,29.37,NE,45,0.0,0.0,94,0.00,,,15.30,meteohub,2013-03-05 08:41:00,
2013-03-04 22:46:00,64.4,62.6,29.37,NE,45,0.0,0.0,94,0.00,,,15.30,meteohub,2013-03-05 08:46:00,
2013-03-04 22:51:00,64.4,62.4,29.37,NE,45,0.0,0.0,93,0.00,,,15.30,meteohub,2013-03-05 08:51:00,
2013-03-04 22:56:00,64.4,62.4,29.38,North,0,0.0,0.0,93,0.00,,,15.30,meteohub,2013-03-05 08:56:00,
2013-03-04 23:01:00,64.4,62.1,29.38,NE,45,0.0,0.0,92,0.00,,,15.30,meteohub,2013-03-05 09:01:00,
2013-03-04 23:06:00,64.2,61.5,29.38,NE,45,0.0,0.0,91,0.00,,,15.30,meteohub,2013-03-05 09:06:00,
2013-03-04 23:11:00,64.2,61.5,29.37,North,0,0.0,0.0,91,0.00,,,15.30,meteohub,2013-03-05 09:11:00,
2013-03-04 23:16:00,64.0,61.0,29.37,NE,45,0.0,0.0,90,0.00,,,15.30,meteohub,2013-03-05 09:16:00,
2013-03-04 23:21:00,63.7,60.6,29.37,NE,45,0.0,0.0,90,0.00,,,15.30,meteohub,2013-03-05 09:21:00,
2013-03-04 23:26:00,63.5,60.4,29.37,NE,45,0.0,0.0,90,0.00,,,15.30,meteohub,2013-03-05 09:26:00,
2013-03-04 23:31:00,63.3,60.3,29.37,NE,45,0.0,0.0,90,0.00,,,15.30,meteohub,2013-03-05 09:31:00,
2013-03-04 23:36:00,63.1,60.4,29.37,NE,45,0.0,0.0,91,0.00,,,15.30,meteohub,2013-03-05 09:36:00,
2013-03-04 23:41:00,63.0,60.3,29.37,NE,45,0.0,0.0,91,0.00,,,15.30,meteohub,2013-03-05 09:41:00,
2013-03-04 23:46:00,63.0,60.6,29.37,East,90,0.0,0.0,92,0.00,,,15.30,meteohub,2013-03-05 09:46:00,
2013-03-04 23:51:00,63.0,60.6,29.37,East,90,0.0,0.0,92,0.00,,,15.30,meteohub,2013-03-05 09:51:00,
2013-03-04 23:56:00,63.0,60.6,29.37,NE,45,0.0,0.0,92,0.00,,,15.30,meteohub,2013-03-05 09:56:00,